Time;durP1;ratioP1;P1;durP2;ratioP2;P2;SDS_P1;SDS_P2;PMS_P1;PMS_P2;Temp;Humidity;BMP_temperature;BMP_pressure;BME280_temperature;BME280_humidity;BME280_pressure;Samples;Min_cycle;Max_cycle;Signal;HPM_P1;HPM_P2
2022/05/13 00:00:46;;;;;;;4.90;3.67;;;19.40;74.70;;;19.39;60.19;97897.53;5026147;28;20461;-36
2022/05/13 00:03:14;;;;;;;6.25;3.85;;;19.40;74.50;;;19.43;60.02;97897.94;5026382;28;20053;-36
2022/05/13 00:05:42;;;;;;;3.97;3.55;;;19.40;74.50;;;19.39;60.00;97907.50;5027472;28;20057;-36
2022/05/13 00:08:10;;;;;;;6.97;3.85;;;19.40;74.30;;;19.37;59.95;97910.41;5026849;28;20055;-36
2022/05/13 00:10:37;;;;;;;4.40;3.92;;;19.40;74.20;;;19.37;59.95;97902.31;5025569;28;20045;-36
2022/05/13 00:13:05;;;;;;;4.65;3.92;;;19.40;74.00;;;19.40;59.77;97914.53;5027008;28;20164;-37
2022/05/13 00:15:34;;;;;;;5.10;3.50;;;19.40;74.00;;;19.36;59.83;97907.91;5026349;28;20048;-36
2022/05/13 00:18:02;;;;;;;4.38;3.65;;;19.30;74.00;;;19.34;59.74;97918.91;5024875;28;20055;-36
2022/05/13 00:20:30;;;;;;;4.25;3.53;;;19.30;73.90;;;19.33;59.80;97906.47;5026628;28;20049;-36
2022/05/13 00:22:58;;;;;;;5.65;3.83;;;19.30;74.10;;;19.32;59.77;97910.19;5027255;28;20367;-37
2022/05/13 00:25:33;;;;;;;6.18;4.05;;;19.30;74.10;;;19.33;59.67;97919.13;5025408;28;20059;-36
2022/05/13 00:28:01;;;;;;;5.20;4.22;;;19.30;74.20;;;19.32;59.77;97907.50;5023261;28;20255;-36
2022/05/13 00:30:33;;;;;;;5.05;3.90;;;19.20;74.40;;;19.35;60.05;97906.22;5026911;28;20053;-36
2022/05/13 00:33:01;;;;;;;4.93;3.92;;;19.30;74.50;;;19.35;60.03;97906.22;5026776;28;20350;-36
2022/05/13 00:35:29;;;;;;;4.50;3.90;;;19.30;74.70;;;19.34;60.11;97905.41;5027514;28;20057;-36
2022/05/13 00:37:57;;;;;;;4.53;3.10;;;19.20;74.80;;;19.36;59.91;97906.03;5026408;28;20057;-36
2022/05/13 00:40:25;;;;;;;4.22;3.50;;;19.20;74.90;;;19.35;59.88;97896.28;5025500;28;20390;-36
2022/05/13 00:43:00;;;;;;;10.80;4.40;;;19.20;74.90;;;19.39;59.81;97904.81;5026421;28;20052;-36
2022/05/13 00:45:31;;;;;;;6.78;4.10;;;19.30;75.30;;;19.37;60.01;97899.59;5025805;28;20048;-36
2022/05/13 00:48:00;;;;;;;5.50;3.60;;;19.20;75.00;;;19.35;60.09;97899.00;5025496;28;20065;-36
2022/05/13 00:50:32;;;;;;;6.97;4.03;;;19.20;75.30;;;19.33;60.30;97898.38;5027686;28;20061;-36
2022/05/13 00:53:00;;;;;;;6.43;4.28;;;19.20;75.90;;;19.34;60.32;97897.31;5025418;28;20054;-36
2022/05/13 00:55:35;;;;;;;4.47;3.88;;;19.10;76.10;;;19.29;60.45;97891.75;5030212;28;20358;-37
2022/05/13 00:58:08;;;;;;;6.18;3.88;;;19.10;76.50;;;19.32;60.23;97896.69;5028663;28;20049;-35
2022/05/13 01:00:36;;;;;;;6.40;3.78;;;19.10;76.60;;;19.32;60.67;97899.41;5028254;28;20052;-36
2022/05/13 01:03:06;;;;;;;5.88;3.60;;;19.10;76.80;;;19.32;60.76;97894.00;5028700;28;20049;-35
2022/05/13 01:05:35;;;;;;;4.95;4.13;;;19.10;77.80;;;19.28;61.08;97898.16;5029055;28;20057;-35
2022/05/13 01:08:06;;;;;;;7.43;3.92;;;19.00;78.60;;;19.23;61.20;97898.81;5028913;28;20041;-36
2022/05/13 01:10:37;;;;;;;4.45;4.03;;;18.90;79.30;;;19.18;61.32;97887.81;5028332;28;20056;-36
2022/05/13 01:13:11;;;;;;;7.93;3.83;;;18.90;79.90;;;19.13;61.52;97889.47;5029116;28;20364;-37
2022/05/13 01:15:42;;;;;;;6.25;3.80;;;18.90;79.30;;;19.09;61.81;97878.25;5029171;28;20049;-35
2022/05/13 01:18:11;;;;;;;5.20;4.05;;;19.00;78.90;;;19.03;61.87;97876.41;5028356;28;20263;-35
2022/05/13 01:20:50;;;;;;;4.80;4.20;;;19.00;78.60;;;19.01;62.04;97886.59;5030155;28;20050;-36
2022/05/13 01:23:24;;;;;;;4.90;3.88;;;18.90;79.70;;;19.00;62.06;97882.22;5029377;28;20041;-36
2022/05/13 01:26:04;;;;;;;6.00;4.38;;;18.90;80.00;;;19.00;62.09;97876.81;5028732;28;20053;-37
2022/05/13 01:28:40;;;;;;;6.13;4.00;;;18.80;80.50;;;19.00;61.98;97877.66;5029936;28;20057;-36
2022/05/13 01:31:12;;;;;;;5.00;4.50;;;18.70;80.90;;;19.00;62.03;97877.66;5029647;28;20320;-36
2022/05/13 01:33:41;;;;;;;5.15;3.80;;;18.70;81.50;;;18.96;62.00;97879.13;5028949;28;20053;-36
2022/05/13 01:36:10;;;;;;;5.53;4.55;;;18.70;81.50;;;18.96;62.25;97876.44;5029817;28;20355;-36
2022/05/13 01:38:39;;;;;;;5.32;3.95;;;18.70;81.20;;;18.96;62.17;97876.44;5029108;28;20057;-36
2022/05/13 01:41:10;;;;;;;6.15;3.60;;;18.70;81.80;;;18.96;61.78;97891.75;5028107;28;20068;-37
2022/05/13 01:43:40;;;;;;;4.00;3.55;;;18.70;82.20;;;18.96;62.09;97892.63;5029339;28;20399;-37
2022/05/13 01:46:09;;;;;;;5.45;3.83;;;18.60;81.40;;;18.94;62.18;97893.84;5029011;28;20056;-36
2022/05/13 01:48:38;;;;;;;5.82;4.20;;;18.60;81.80;;;18.92;62.29;97888.69;5028074;28;20042;-36
2022/05/13 01:51:06;;;;;;;9.55;4.03;;;18.60;82.30;;;18.90;62.32;97885.34;5028710;28;20064;-37
2022/05/13 01:53:35;;;;;;;5.47;4.05;;;18.60;84.00;;;18.87;62.64;97877.69;5029121;28;20639;-37
2022/05/13 01:56:04;;;;;;;6.70;3.97;;;18.50;86.10;;;18.83;62.80;97868.34;5028955;28;20057;-37
2022/05/13 01:58:34;;;;;;;5.95;3.75;;;18.40;86.30;;;18.78;63.06;97876.19;5028406;28;20373;-35
2022/05/13 02:01:05;;;;;;;5.65;4.72;;;18.40;87.30;;;18.75;62.98;97887.41;5029380;28;20335;-35
2022/05/13 02:03:45;;;;;;;6.60;4.32;;;18.40;86.50;;;18.73;63.16;97884.91;5028541;28;20050;-35
2022/05/13 02:06:23;;;;;;;5.93;4.43;;;18.50;86.60;;;18.70;63.06;97886.13;5028078;28;20053;-35
2022/05/13 02:08:54;;;;;;;8.00;4.68;;;18.30;87.30;;;18.61;63.80;97887.41;5027757;28;20068;-35
2022/05/13 02:11:25;;;;;;;6.05;5.30;;;18.20;89.50;;;18.60;63.49;97891.13;5027898;28;20057;-36
2022/05/13 02:13:54;;;;;;;7.18;4.00;;;18.20;89.60;;;18.54;63.58;97902.72;5028119;28;20065;-36
2022/05/13 02:16:22;;;;;;;5.32;4.05;;;18.30;89.00;;;18.48;63.70;97906.25;5027442;28;20084;-36
2022/05/13 02:18:50;;;;;;;6.22;4.68;;;18.20;88.20;;;18.37;63.98;97891.50;5027698;28;20049;-36
2022/05/13 02:21:19;;;;;;;5.45;4.55;;;18.30;87.60;;;18.36;64.35;97889.88;5028880;28;20060;-36
2022/05/13 02:23:47;;;;;;;5.47;4.70;;;18.20;88.00;;;18.37;63.98;97898.78;5027115;28;20045;-36
2022/05/13 02:26:17;;;;;;;8.65;4.30;;;18.20;88.20;;;18.32;64.50;97891.31;5028955;28;20067;-36
2022/05/13 02:28:45;;;;;;;6.00;4.30;;;18.00;90.70;;;18.28;64.35;97896.28;5027597;28;20053;-36
2022/05/13 02:31:13;;;;;;;4.53;4.00;;;18.00;90.70;;;18.30;64.34;97899.59;5028220;28;20063;-36
2022/05/13 02:33:43;;;;;;;8.75;4.78;;;18.10;90.80;;;18.30;64.25;97891.50;5028035;28;20240;-36
2022/05/13 02:36:12;;;;;;;6.90;4.07;;;18.10;90.00;;;18.26;64.04;97892.09;5028276;28;20060;-36
2022/05/13 02:38:40;;;;;;;4.32;3.92;;;18.10;89.10;;;18.28;64.00;97892.72;5027435;28;20045;-36
2022/05/13 02:41:14;;;;;;;6.85;4.10;;;18.10;88.30;;;18.27;64.25;97889.22;5027446;28;20209;-36
2022/05/13 02:43:53;;;;;;;5.45;4.22;;;18.20;87.90;;;18.24;64.82;97888.78;5027608;28;20203;-36
2022/05/13 02:46:32;;;;;;;5.10;4.15;;;18.20;88.40;;;18.28;64.18;97896.28;5028657;28;20045;-36
2022/05/13 02:49:01;;;;;;;5.72;4.43;;;18.20;88.60;;;18.28;64.42;97888.19;5028058;28;20051;-36
2022/05/13 02:51:29;;;;;;;8.25;4.65;;;18.20;89.40;;;18.31;64.14;97892.34;5027520;28;20065;-36
2022/05/13 02:53:57;;;;;;;9.57;5.35;;;18.10;89.40;;;18.33;64.23;97886.75;5027229;28;20098;-36
2022/05/13 02:56:25;;;;;;;5.55;5.05;;;18.00;90.00;;;18.32;64.29;97894.00;5027366;28;20225;-36
2022/05/13 02:58:53;;;;;;;7.80;5.93;;;18.00;90.00;;;18.35;64.18;97887.38;5028006;28;20356;-36
2022/05/13 03:01:20;;;;;;;5.05;4.55;;;18.10;90.40;;;18.35;64.43;97890.88;5027118;28;20057;-36
2022/05/13 03:03:50;;;;;;;5.65;4.63;;;18.10;91.00;;;18.38;64.39;97890.50;5042436;28;20057;-36
2022/05/13 03:06:20;;;;;;;5.63;4.53;;;18.10;91.50;;;18.36;64.51;97891.72;5027121;28;20045;-35
2022/05/13 03:08:49;;;;;;;9.25;6.32;;;18.10;92.00;;;18.34;64.57;97900.03;5027081;28;20050;-36
2022/05/13 03:11:18;;;;;;;6.45;5.15;;;18.00;91.80;;;18.32;64.41;97896.69;5024941;28;20075;-35
2022/05/13 03:13:47;;;;;;;5.75;4.50;;;18.00;91.80;;;18.28;64.72;97888.19;5026663;28;20067;-35
2022/05/13 03:16:19;;;;;;;5.63;4.85;;;18.00;92.00;;;18.27;64.77;97885.69;5026764;28;20072;-36
2022/05/13 03:18:52;;;;;;;7.05;4.38;;;18.10;92.40;;;18.28;64.77;97885.50;5027235;28;20060;-36
2022/05/13 03:21:22;;;;;;;8.10;4.97;;;18.10;91.90;;;18.32;64.59;97880.53;5026912;28;20094;-36
2022/05/13 03:23:50;;;;;;;5.30;4.80;;;18.10;91.70;;;18.32;64.92;97885.06;5026252;28;20076;-36
2022/05/13 03:26:21;;;;;;;7.50;5.53;;;18.00;92.90;;;18.10;65.45;97886.06;5027066;28;20053;-36
2022/05/13 03:28:49;;;;;;;6.32;4.90;;;17.70;98.40;;;18.13;65.45;97884.03;5025019;28;20253;-36
2022/05/13 03:31:17;;;;;;;9.90;5.50;;;17.70;99.90;;;18.13;65.31;97881.31;5026189;28;20053;-36
2022/05/13 03:33:45;;;;;;;9.27;6.40;;;17.80;99.90;;;18.15;65.30;97874.69;5026605;28;20051;-36
2022/05/13 03:36:14;;;;;;;5.70;4.90;;;17.90;99.90;;;18.18;65.39;97879.66;5027936;28;20057;-36
2022/05/13 03:38:42;;;;;;;6.97;5.22;;;17.80;99.90;;;18.16;65.20;97879.03;5027202;28;20574;-36
2022/05/13 03:41:12;;;;;;;7.80;5.65;;;17.80;99.80;;;18.13;65.22;97887.53;5025126;28;20339;-36
2022/05/13 03:43:40;;;;;;;6.65;5.35;;;17.80;99.50;;;18.10;65.22;97896.84;5027390;28;20045;-36
2022/05/13 03:46:08;;;;;;;7.85;6.05;;;17.80;98.90;;;18.09;65.04;97892.50;5027114;28;20041;-36
2022/05/13 03:48:36;;;;;;;7.15;5.65;;;17.70;98.80;;;18.10;65.09;97885.25;5026121;28;20055;-36
2022/05/13 03:51:04;;;;;;;8.40;5.68;;;17.70;99.20;;;18.08;65.06;97896.22;5026490;28;20247;-36
2022/05/13 03:53:32;;;;;;;6.78;5.05;;;17.80;98.70;;;18.06;64.93;97900.16;5027144;28;20065;-36
2022/05/13 03:56:00;;;;;;;6.70;5.13;;;17.80;97.80;;;18.06;65.12;97895.59;5028135;28;20067;-36
2022/05/13 03:58:27;;;;;;;7.97;5.47;;;17.90;97.20;;;18.09;64.87;97888.97;5024810;28;20045;-36
2022/05/13 04:00:55;;;;;;;9.43;5.07;;;17.90;96.40;;;18.10;64.83;97885.25;5026520;28;20231;-36
2022/05/13 04:03:23;;;;;;;5.88;5.15;;;17.80;96.30;;;18.07;65.13;97893.75;5027082;28;20240;-35
2022/05/13 04:08:59;;;;;;;6.70;5.47;;;18.00;95.30;;;18.05;65.05;97899.31;5025936;28;20458;-36
2022/05/13 04:11:31;;;;;;;8.43;5.90;;;17.90;95.20;;;18.05;64.99;97885.03;5026667;28;20045;-36
2022/05/13 04:16:46;;;;;;;7.50;5.60;;;17.80;94.50;;;18.03;64.74;97882.53;5025452;28;20053;-36
2022/05/13 04:19:14;;;;;;;8.32;5.47;;;17.80;94.50;;;18.02;64.79;97888.94;5026016;28;20053;-36
2022/05/13 04:21:44;;;;;;;8.68;5.75;;;17.80;94.60;;;18.02;64.71;97894.34;5025891;28;20259;-36
2022/05/13 04:24:17;;;;;;;8.00;5.20;;;17.70;94.90;;;18.02;64.70;97891.63;5026798;28;20056;-36
2022/05/13 04:26:47;;;;;;;7.43;5.45;;;17.70;95.00;;;18.02;64.75;97893.50;5026871;28;20056;-36
2022/05/13 04:29:15;;;;;;;8.90;5.82;;;17.70;95.00;;;18.04;64.57;97894.13;5027627;28;20045;-36
2022/05/13 04:31:44;;;;;;;6.85;5.10;;;17.70;94.80;;;18.04;64.48;97905.72;5030692;28;20053;-35
2022/05/13 04:34:12;;;;;;;6.30;4.32;;;17.70;94.90;;;18.03;64.72;97912.16;5030811;28;20049;-36
2022/05/13 04:36:40;;;;;;;7.93;4.95;;;17.70;95.20;;;18.02;64.55;97910.50;5030939;28;20057;-36
2022/05/13 04:39:08;;;;;;;6.03;4.65;;;17.60;95.00;;;18.02;64.64;97915.88;5030221;28;20065;-36
2022/05/13 04:44:23;;;;;;;9.70;4.88;;;17.70;95.30;;;17.99;64.73;97920.84;5030731;28;20045;-36
2022/05/13 04:46:51;;;;;;;7.90;5.05;;;17.70;95.00;;;17.98;64.89;97930.78;5030970;28;20051;-36
2022/05/13 04:49:19;;;;;;;7.20;4.70;;;17.60;95.00;;;17.99;64.61;97928.91;5028371;28;20045;-36
2022/05/13 04:51:53;;;;;;;9.00;4.68;;;17.70;95.10;;;17.96;64.43;97929.34;5029863;28;20095;-36
2022/05/13 04:54:21;;;;;;;8.23;4.25;;;17.60;94.30;;;17.96;64.39;97930.16;5030024;28;20076;-36
2022/05/13 04:56:49;;;;;;;7.93;5.00;;;17.70;93.60;;;17.97;64.42;97939.91;5029806;28;20057;-36
2022/05/13 04:59:17;;;;;;;6.05;4.78;;;17.60;93.40;;;17.96;64.31;97938.25;5028757;28;20059;-36
2022/05/13 05:01:45;;;;;;;6.40;4.68;;;17.60;93.00;;;17.94;64.02;97931.41;5029652;28;20042;-36
2022/05/13 05:04:12;;;;;;;7.97;4.80;;;17.50;93.20;;;17.90;64.15;97936.34;5030908;28;20343;-36
2022/05/13 05:06:41;;;;;;;7.07;5.05;;;17.50;93.40;;;17.87;64.27;97932.22;5028927;28;20064;-36
2022/05/13 05:09:09;;;;;;;8.02;4.40;;;17.40;93.70;;;17.89;64.31;97934.69;5030173;28;20267;-36
2022/05/13 05:11:36;;;;;;;5.45;4.38;;;17.60;93.10;;;17.90;64.40;97939.06;5029195;28;20053;-36
2022/05/13 05:14:04;;;;;;;5.95;4.30;;;17.70;91.90;;;17.89;64.18;97930.16;5030082;28;20346;-36
2022/05/13 05:16:32;;;;;;;9.45;4.47;;;17.70;91.20;;;17.93;63.86;97930.56;5029821;28;20079;-36
2022/05/13 05:19:00;;;;;;;6.20;4.25;;;17.70;90.20;;;18.01;63.83;97941.19;5030003;28;20531;-36
2022/05/13 05:21:28;;;;;;;9.80;4.78;;;17.80;89.50;;;18.04;63.68;97935.38;5028766;28;20045;-36
2022/05/13 05:23:57;;;;;;;8.07;4.70;;;17.80;88.30;;;18.08;63.53;97933.09;5029879;28;20249;-36
2022/05/13 05:26:24;;;;;;;6.25;5.05;;;17.80;87.60;;;18.13;63.21;97933.34;5028338;28;20350;-36
2022/05/13 05:28:54;;;;;;;5.95;4.43;;;17.90;87.10;;;18.18;63.33;97933.53;5029184;28;20091;-36
2022/05/13 05:31:22;;;;;;;5.30;4.10;;;18.00;86.80;;;18.20;63.18;97938.72;5029252;28;20079;-37
2022/05/13 05:33:50;;;;;;;8.02;4.63;;;18.00;85.60;;;18.22;63.13;97934.81;5029067;28;20357;-36
2022/05/13 05:36:18;;;;;;;8.02;4.93;;;17.90;85.90;;;18.18;63.36;97944.31;5029810;28;20247;-36
2022/05/13 05:38:46;;;;;;;6.13;4.60;;;17.90;86.20;;;18.07;63.57;97942.22;5030426;28;20343;-36
2022/05/13 05:41:14;;;;;;;9.48;5.45;;;17.70;87.00;;;18.01;63.71;97949.25;5028067;28;20045;-36
2022/05/13 05:43:43;;;;;;;6.80;4.20;;;17.60;88.20;;;18.00;63.84;97949.44;5030437;28;20332;-36
2022/05/13 05:46:10;;;;;;;6.18;4.32;;;17.70;88.70;;;18.02;63.69;97953.59;5030231;28;20243;-34
2022/05/13 05:48:38;;;;;;;6.45;4.80;;;17.70;88.20;;;18.01;63.71;97953.78;5028891;28;20049;-35
2022/05/13 05:51:06;;;;;;;8.65;4.93;;;17.60;88.50;;;17.93;64.08;97953.97;5029113;28;20053;-35
2022/05/13 05:59:12;;;;;;;6.63;4.03;;;17.60;91.30;;;18.00;64.30;97955.66;5029461;28;20053;-35
2022/05/13 06:01:39;;;;;;;6.80;5.15;;;17.70;91.00;;;17.97;64.35;97956.09;5027060;28;20079;-35
2022/05/13 06:04:07;;;;;;;7.82;3.95;;;17.70;90.20;;;17.99;64.32;97963.94;5027967;28;20343;-35
2022/05/13 06:06:35;;;;;;;7.90;4.60;;;17.80;89.60;;;18.04;64.02;97962.31;5029438;28;20067;-35
2022/05/13 06:09:03;;;;;;;5.75;4.53;;;17.80;89.40;;;18.03;63.88;97962.50;5029408;28;20348;-36
2022/05/13 06:11:31;;;;;;;7.38;3.85;;;17.80;88.50;;;18.11;63.96;97959.66;5028486;28;20045;-35
2022/05/13 06:14:00;;;;;;;4.72;3.88;;;17.90;88.50;;;18.10;63.46;97964.19;5027764;28;20049;-35
2022/05/13 06:16:28;;;;;;;7.82;4.28;;;17.90;86.00;;;18.16;63.00;97965.25;5027367;28;20057;-35
2022/05/13 06:19:00;;;;;;;7.40;3.80;;;18.00;85.10;;;18.24;63.11;97965.09;5027696;28;20059;-35
2022/05/13 06:21:35;;;;;;;11.85;4.03;;;18.10;83.70;;;18.04;62.05;97965.00;5027058;28;20045;-35
2022/05/13 06:24:04;;;;;;;6.60;3.85;;;17.90;81.40;;;18.06;61.80;97959.41;5028042;28;20057;-34
2022/05/13 06:26:32;;;;;;;4.97;3.67;;;17.90;81.10;;;18.13;61.75;97973.75;5028709;28;20047;-35
2022/05/13 06:29:00;;;;;;;6.68;3.60;;;18.00;80.90;;;17.77;61.39;97963.19;5026343;28;20050;-35
2022/05/13 06:31:28;;;;;;;5.45;3.85;;;17.70;78.90;;;17.92;61.85;97965.78;5028900;28;20056;-35
2022/05/13 06:33:56;;;;;;;7.13;3.70;;;17.80;81.20;;;17.70;61.92;97964.00;5026461;28;20065;-35
2022/05/13 06:36:24;;;;;;;8.38;3.45;;;17.60;80.30;;;17.92;61.72;97972.00;5028152;28;20483;-35
2022/05/13 06:38:52;;;;;;;4.72;3.00;;;17.80;80.20;;;17.88;61.66;97968.88;5027479;28;20063;-36
2022/05/13 06:41:20;;;;;;;7.25;3.85;;;17.70;79.40;;;17.78;61.01;97971.06;5026916;28;20064;-36
2022/05/13 06:43:48;;;;;;;6.40;3.53;;;17.70;77.70;;;18.04;61.12;97969.56;5029095;28;20431;-35
2022/05/13 06:46:16;;;;;;;5.85;3.65;;;17.90;79.00;;;18.12;60.56;97968.56;5026889;28;20057;-35
2022/05/13 06:48:48;;;;;;;15.27;4.63;;;18.00;77.20;;;18.09;60.37;97972.50;5028204;28;20279;-35
2022/05/13 06:51:17;;;;;;;5.63;3.20;;;18.00;77.10;;;18.21;60.46;97983.53;5024766;28;20355;-36
2022/05/13 06:53:44;;;;;;;4.20;3.53;;;18.20;76.10;;;18.18;60.68;97986.59;5028146;28;20065;-35
2022/05/13 06:56:12;;;;;;;5.60;3.28;;;18.10;77.20;;;17.95;60.55;97985.09;5027377;28;20064;-35
2022/05/13 06:58:40;;;;;;;6.20;3.45;;;17.80;77.20;;;17.85;60.99;97980.03;5026444;28;20059;-35
2022/05/13 07:01:08;;;;;;;4.55;3.28;;;17.80;77.80;;;18.02;60.55;97990.47;5028338;28;20045;-35
2022/05/13 07:03:36;;;;;;;5.43;2.90;;;18.00;76.10;;;18.05;59.50;97993.63;5026299;28;20049;-36
2022/05/13 07:06:04;;;;;;;4.93;3.35;;;18.00;73.60;;;18.21;59.42;97997.00;5029286;28;20055;-35
2022/05/13 07:08:32;;;;;;;4.15;2.90;;;18.20;73.70;;;18.12;58.51;98004.41;5027107;28;20370;-35
2022/05/13 07:11:00;;;;;;;4.68;3.08;;;18.10;72.50;;;18.15;58.40;98005.88;5028141;28;20045;-35
2022/05/13 07:13:28;;;;;;;4.25;2.58;;;18.10;72.20;;;18.15;58.54;98000.50;5027645;28;20050;-35
2022/05/13 07:15:58;;;;;;;5.55;3.25;;;18.00;72.80;;;18.17;58.18;98010.03;5026220;28;20068;-35
2022/05/13 07:18:26;;;;;;;5.05;3.00;;;18.10;73.00;;;18.18;58.25;98006.28;5027000;28;20079;-36
2022/05/13 07:20:54;;;;;;;6.53;3.40;;;18.10;73.10;;;18.26;57.98;98011.53;5027705;28;20068;-36
2022/05/13 07:23:22;;;;;;;4.30;2.78;;;18.10;71.30;;;18.15;57.88;98017.50;5025543;28;20250;-36
2022/05/13 07:25:50;;;;;;;7.40;3.22;;;18.10;71.90;;;18.20;57.02;98017.69;5028812;28;20045;-35
2022/05/13 07:28:18;;;;;;;5.07;3.25;;;18.10;69.50;;;18.07;57.16;98021.19;5027688;28;20037;-35
2022/05/13 07:30:47;;;;;;;4.07;2.72;;;18.00;70.60;;;18.08;57.25;98019.31;5027078;28;20045;-35
2022/05/13 07:33:15;;;;;;;7.32;3.15;;;18.00;70.90;;;18.21;57.41;98024.75;5026728;28;20286;-35
2022/05/13 07:35:43;;;;;;;7.72;3.20;;;18.10;71.30;;;18.05;57.23;98031.31;5026485;28;20053;-35
2022/05/13 07:38:10;;;;;;;5.38;2.90;;;18.00;69.60;;;18.06;57.47;98027.59;5027074;28;20047;-35
2022/05/13 07:43:25;;;;;;;6.20;2.80;;;18.00;68.60;;;17.85;54.87;98036.59;5027187;28;20049;-36
2022/05/13 07:45:53;;;;;;;6.32;3.30;;;17.90;65.70;;;17.93;55.33;98037.47;5027496;28;20058;-35
2022/05/13 07:48:21;;;;;;;8.43;3.17;;;17.90;67.40;;;17.90;55.79;98038.69;5026612;28;20053;-35
2022/05/13 07:50:49;;;;;;;3.58;2.50;;;17.90;67.70;;;17.88;55.89;98041.59;5026938;28;20059;-35
2022/05/13 07:53:18;;;;;;;4.93;2.97;;;17.90;68.20;;;17.96;55.73;98027.13;5025946;28;20050;-35
2022/05/13 07:55:46;;;;;;;8.55;3.63;;;18.00;67.50;;;18.08;56.13;98036.31;5027151;28;20045;-36
2022/05/13 07:58:16;;;;;;;6.13;3.05;;;18.10;68.40;;;18.18;56.04;98053.97;5028506;28;20386;-36
2022/05/13 08:00:44;;;;;;;8.07;3.13;;;18.30;67.90;;;18.08;56.38;98049.78;5033634;28;20377;-36
2022/05/13 08:03:15;;;;;;;5.07;3.35;;;18.10;69.30;;;18.25;56.10;98050.28;5029049;28;20347;-35
2022/05/13 08:05:51;;;;;;;7.97;3.30;;;18.30;68.50;;;18.15;56.95;98044.44;5036172;28;20335;-35
2022/05/13 08:08:36;;;;;;;8.75;3.95;;;18.20;70.00;;;17.78;58.57;98041.09;5034915;28;20053;-35
2022/05/13 08:11:06;;;;;;;6.88;3.13;;;17.80;72.00;;;18.18;58.12;98043.19;5032831;28;20316;-35
2022/05/13 08:13:37;;;;;;;6.32;3.53;;;18.10;72.40;;;18.38;57.89;98044.13;5037284;28;20151;-35
2022/05/13 08:16:13;;;;;;;5.47;3.53;;;18.50;71.40;;;18.47;57.29;98056.38;5034611;28;20275;-35
2022/05/13 08:18:42;;;;;;;10.57;3.63;;;18.50;70.50;;;18.37;56.88;98047.00;5026668;28;20375;-35
2022/05/13 08:21:10;;;;;;;8.40;3.05;;;18.40;69.30;;;18.38;56.64;98043.25;5026327;28;20060;-36
2022/05/13 08:23:40;;;;;;;7.10;3.92;;;18.50;69.40;;;18.54;55.94;98055.59;5026745;28;20347;-36
2022/05/13 08:26:08;;;;;;;6.15;3.08;;;18.60;67.90;;;18.57;54.84;98041.69;5021917;28;20052;-36
2022/05/13 08:28:36;;;;;;;5.47;3.90;;;18.70;66.20;;;18.65;54.72;98041.50;5026635;28;20045;-36
2022/05/13 08:31:05;;;;;;;5.50;2.50;;;18.80;65.40;;;18.67;55.12;98042.16;5026786;28;20374;-35
2022/05/13 08:33:33;;;;;;;6.03;3.35;;;18.80;66.20;;;18.69;54.92;98048.16;5025668;28;20071;-36
2022/05/13 08:36:04;;;;;;;8.40;3.55;;;18.80;66.40;;;18.73;55.11;98040.47;5026253;28;20251;-36
2022/05/13 08:38:37;;;;;;;6.60;3.47;;;18.90;66.60;;;18.92;55.28;98046.97;5026560;28;20054;-34
2022/05/13 08:41:08;;;;;;;7.22;3.65;;;19.10;66.50;;;18.84;54.39;98043.47;5024443;28;20049;-33
2022/05/13 08:44:00;;;;;;;4.22;2.80;;;18.90;66.10;;;18.86;52.80;98049.47;5026433;28;20052;-34
2022/05/13 08:46:52;;;;;;;4.82;2.78;;;19.20;63.60;;;18.61;52.92;98046.47;5025662;28;20049;-34
2022/05/13 08:50:01;;;;;;;17.55;6.57;;;18.80;62.20;;;18.67;54.89;98050.25;5025855;28;20056;-33
2022/05/13 08:53:09;;;;;;;9.55;3.97;;;18.90;67.00;;;18.89;55.42;98059.03;5026465;28;20053;-34
2022/05/13 08:55:51;;;;;;;41.70;15.45;;;19.30;66.30;;;18.54;57.02;98059.09;5026312;28;20348;-34
2022/05/13 08:58:28;;;;;;;4.28;3.30;;;19.00;71.50;;;18.61;56.33;98051.88;5026212;28;20359;-34
2022/05/13 09:01:01;;;;;;;12.18;4.75;;;19.10;66.70;;;18.51;53.50;98054.09;5008641;28;20075;-32
2022/05/13 09:03:53;;;;;;;6.72;2.88;;;19.00;62.30;;;18.52;53.94;98046.88;5024459;28;20173;-33
2022/05/13 09:06:52;;;;;;;9.23;4.18;;;18.80;63.30;;;18.22;51.40;98055.22;5026887;28;20041;-34
2022/05/13 09:09:20;;;;;;;4.93;3.03;;;18.70;60.00;;;18.42;52.25;98048.06;5024465;28;20051;-34
2022/05/13 09:12:20;;;;;;;7.68;3.22;;;18.70;61.60;;;18.49;52.50;98056.16;5041016;28;20060;-34
2022/05/13 09:15:00;;;;;;;3.92;2.33;;;18.90;60.60;;;18.46;53.17;98048.50;5024458;28;20048;-34
2022/05/13 09:17:39;;;;;;;8.27;2.67;;;18.80;62.60;;;18.84;52.92;98056.94;5028236;28;20053;-37
2022/05/13 09:20:11;;;;;;;5.25;2.85;;;19.30;60.80;;;19.37;50.56;98058.06;5029120;28;20429;-39
2022/05/13 09:22:52;;;;;;;5.35;3.08;;;19.90;57.10;;;19.34;47.97;98056.56;5028987;28;20357;-38
2022/05/13 09:25:45;;;;;;;4.63;3.03;;;19.60;54.20;;;19.01;49.68;98054.69;5030433;28;20056;-40
2022/05/13 09:28:15;;;;;;;4.70;2.53;;;19.10;58.60;;;18.62;49.50;98058.09;5030231;28;20041;-40
2022/05/13 09:30:50;;;;;;;5.28;2.60;;;18.70;58.20;;;18.73;50.58;98054.81;5042603;28;20045;-42
2022/05/13 09:33:37;;;;;;;5.05;2.65;;;18.80;59.60;;;18.71;50.06;98059.56;5027502;28;20235;-40
2022/05/13 09:36:19;;;;;;;10.23;3.45;;;18.90;58.50;;;18.60;50.14;98052.06;5029490;28;20059;-40
2022/05/13 09:38:53;;;;;;;6.93;2.60;;;18.90;58.20;;;18.73;51.04;98060.22;5027662;28;20299;-39
2022/05/13 09:41:33;;;;;;;5.47;2.97;;;19.00;59.10;;;18.68;49.49;98060.78;5027551;28;20240;-39
2022/05/13 09:44:25;;;;;;;5.18;2.65;;;19.00;57.30;;;18.59;50.66;98055.78;5026983;28;20049;-39
2022/05/13 09:47:38;;;;;;;4.00;2.33;;;18.80;59.80;;;18.86;51.08;98054.03;5028452;28;20050;-39
2022/05/13 09:50:31;;;;;;;5.57;3.25;;;19.00;60.10;;;19.02;51.07;98059.06;5029014;28;20053;-39
2022/05/13 09:53:07;;;;;;;5.50;3.10;;;19.30;59.60;;;18.92;51.06;98055.06;5028855;28;20045;-40
2022/05/13 09:55:39;;;;;;;8.10;3.40;;;19.20;59.50;;;19.05;50.76;98055.09;5029251;28;20371;-39
2022/05/13 09:58:22;;;;;;;6.45;3.10;;;19.20;59.80;;;19.13;49.62;98063.00;5028497;28;20167;-40
2022/05/13 10:01:13;;;;;;;6.57;3.58;;;19.30;58.10;;;18.95;50.52;98051.97;5027688;28;20366;-39
2022/05/13 10:03:58;;;;;;;7.72;3.80;;;19.00;59.70;;;19.25;50.94;98057.81;5028259;28;20057;-40
2022/05/13 10:06:34;;;;;;;9.38;3.42;;;19.40;60.20;;;19.07;50.94;98059.25;5027528;28;20056;-39
2022/05/13 10:15:32;;;;;;;6.78;3.42;;;19.70;57.60;;;19.28;49.36;98055.53;5029563;28;20075;-39
2022/05/13 10:18:22;;;;;;;8.60;4.35;;;19.50;57.40;;;19.18;49.95;98057.81;5026586;28;20057;-39
2022/05/13 10:21:12;;;;;;;7.03;3.50;;;19.30;58.60;;;19.18;49.92;98068.63;5026651;28;20053;-39
2022/05/13 10:24:06;;;;;;;5.35;3.55;;;19.40;58.90;;;19.17;50.13;98055.31;5027372;28;20053;-39
2022/05/13 10:26:41;;;;;;;8.02;3.22;;;19.30;59.80;;;19.39;49.28;98061.38;5027711;28;20239;-40
2022/05/13 10:29:39;;;;;;;7.57;3.35;;;19.50;57.60;;;19.23;48.75;98058.03;5027277;28;20053;-40
2022/05/13 10:32:25;;;;;;;7.38;3.40;;;19.40;57.00;;;19.31;49.49;98065.09;5027249;28;20053;-40
2022/05/13 10:35:00;;;;;;;5.30;3.30;;;19.50;57.20;;;19.47;49.24;98059.28;5027464;28;20053;-40
2022/05/13 10:37:39;;;;;;;4.97;3.78;;;19.70;56.70;;;19.15;49.06;98065.50;5028636;28;20049;-40
2022/05/13 10:40:18;;;;;;;5.50;3.00;;;19.40;57.00;;;19.28;48.08;98069.03;5027437;28;20244;-40
2022/05/13 10:43:35;;;;;;;4.22;3.30;;;19.60;55.90;;;19.43;48.44;98058.03;5026017;28;20061;-40
2022/05/13 10:46:31;;;;;;;7.35;3.83;;;19.70;57.30;;;19.19;48.50;98055.94;5027628;28;20068;-40
2022/05/13 10:49:20;;;;;;;6.60;3.92;;;19.50;55.90;;;19.23;49.16;98051.78;5026554;28;20055;-40
2022/05/13 10:51:58;;;;;;;7.50;3.72;;;19.40;57.10;;;19.30;49.22;98052.63;5026501;28;20057;-40
2022/05/13 10:55:17;;;;;;;5.95;4.00;;;19.60;57.50;;;19.21;48.98;98059.25;5028005;28;20252;-40
2022/05/13 10:58:25;;;;;;;5.28;3.00;;;19.60;57.30;;;19.49;49.27;98059.06;5027226;28;20063;-40
2022/05/13 11:01:32;;;;;;;6.30;3.85;;;19.80;56.50;;;19.63;48.70;98049.09;5026983;28;20258;-40
2022/05/13 11:04:18;;;;;;;10.25;4.00;;;20.00;56.90;;;19.88;48.18;98045.78;5027799;28;20053;-40